sensor_id;sensor_type;location;lat;lon;timestamp;P1;durP1;ratioP1;P2;durP2;ratioP2
48911;SDS011;34722;52.108;5.044;2023-02-15T00:01:42;139.00;;;51.25;;
48911;SDS011;34722;52.108;5.044;2023-02-15T00:04:08;138.27;;;51.22;;
48911;SDS011;34722;52.108;5.044;2023-02-15T00:06:34;129.80;;;48.10;;
48911;SDS011;34722;52.108;5.044;2023-02-15T00:09:01;118.85;;;48.35;;
48911;SDS011;34722;52.108;5.044;2023-02-15T00:11:27;127.43;;;49.00;;
48911;SDS011;34722;52.108;5.044;2023-02-15T00:14:22;133.68;;;50.90;;
48911;SDS011;34722;52.108;5.044;2023-02-15T00:16:49;133.25;;;53.25;;
48911;SDS011;34722;52.108;5.044;2023-02-15T00:19:17;137.52;;;50.28;;
48911;SDS011;34722;52.108;5.044;2023-02-15T00:21:44;131.32;;;49.80;;
48911;SDS011;34722;52.108;5.044;2023-02-15T00:24:11;125.32;;;48.38;;
48911;SDS011;34722;52.108;5.044;2023-02-15T00:26:38;133.40;;;52.78;;
48911;SDS011;34722;52.108;5.044;2023-02-15T00:29:05;126.28;;;50.75;;
48911;SDS011;34722;52.108;5.044;2023-02-15T00:31:49;130.00;;;51.33;;
48911;SDS011;34722;52.108;5.044;2023-02-15T00:34:22;130.48;;;47.33;;
48911;SDS011;34722;52.108;5.044;2023-02-15T00:36:49;119.93;;;45.97;;
48911;SDS011;34722;52.108;5.044;2023-02-15T00:39:15;135.00;;;49.58;;
48911;SDS011;34722;52.108;5.044;2023-02-15T00:44:55;128.23;;;50.97;;
48911;SDS011;34722;52.108;5.044;2023-02-15T00:47:21;131.68;;;50.92;;
48911;SDS011;34722;52.108;5.044;2023-02-15T00:49:46;127.47;;;50.45;;
48911;SDS011;34722;52.108;5.044;2023-02-15T00:52:12;144.02;;;50.67;;
48911;SDS011;34722;52.108;5.044;2023-02-15T00:54:38;128.90;;;50.83;;
48911;SDS011;34722;52.108;5.044;2023-02-15T00:57:03;136.20;;;51.28;;
48911;SDS011;34722;52.108;5.044;2023-02-15T00:59:29;146.00;;;50.03;;
48911;SDS011;34722;52.108;5.044;2023-02-15T01:01:54;130.82;;;50.38;;
48911;SDS011;34722;52.108;5.044;2023-02-15T01:04:20;143.98;;;48.88;;
48911;SDS011;34722;52.108;5.044;2023-02-15T01:06:46;128.88;;;48.63;;
48911;SDS011;34722;52.108;5.044;2023-02-15T01:09:11;152.82;;;52.17;;
48911;SDS011;34722;52.108;5.044;2023-02-15T01:11:38;139.60;;;52.15;;
48911;SDS011;34722;52.108;5.044;2023-02-15T01:14:04;122.93;;;49.88;;
48911;SDS011;34722;52.108;5.044;2023-02-15T01:16:30;137.30;;;51.28;;
48911;SDS011;34722;52.108;5.044;2023-02-15T01:18:57;136.60;;;51.20;;
48911;SDS011;34722;52.108;5.044;2023-02-15T01:21:24;131.27;;;51.17;;
48911;SDS011;34722;52.108;5.044;2023-02-15T01:23:50;137.43;;;53.05;;
48911;SDS011;34722;52.108;5.044;2023-02-15T01:26:16;121.60;;;47.45;;
48911;SDS011;34722;52.108;5.044;2023-02-15T01:28:42;140.07;;;51.83;;
48911;SDS011;34722;52.108;5.044;2023-02-15T01:31:09;151.68;;;55.30;;
48911;SDS011;34722;52.108;5.044;2023-02-15T01:33:36;135.10;;;51.35;;
48911;SDS011;34722;52.108;5.044;2023-02-15T01:36:03;130.73;;;47.53;;
48911;SDS011;34722;52.108;5.044;2023-02-15T01:38:29;129.55;;;48.95;;
48911;SDS011;34722;52.108;5.044;2023-02-15T01:40:55;142.20;;;52.25;;
48911;SDS011;34722;52.108;5.044;2023-02-15T01:43:45;141.00;;;49.67;;
48911;SDS011;34722;52.108;5.044;2023-02-15T01:46:14;147.40;;;52.20;;
48911;SDS011;34722;52.108;5.044;2023-02-15T01:48:50;155.75;;;53.65;;
48911;SDS011;34722;52.108;5.044;2023-02-15T01:51:23;141.57;;;49.95;;
48911;SDS011;34722;52.108;5.044;2023-02-15T01:54:03;148.73;;;53.30;;
48911;SDS011;34722;52.108;5.044;2023-02-15T01:56:35;149.95;;;53.42;;
48911;SDS011;34722;52.108;5.044;2023-02-15T01:59:06;147.20;;;51.65;;
48911;SDS011;34722;52.108;5.044;2023-02-15T02:01:36;151.93;;;54.28;;
48911;SDS011;34722;52.108;5.044;2023-02-15T02:04:14;160.90;;;54.95;;
48911;SDS011;34722;52.108;5.044;2023-02-15T02:07:00;142.98;;;54.35;;
48911;SDS011;34722;52.108;5.044;2023-02-15T02:09:28;146.40;;;55.42;;
48911;SDS011;34722;52.108;5.044;2023-02-15T02:11:54;157.82;;;54.28;;
48911;SDS011;34722;52.108;5.044;2023-02-15T02:14:23;158.10;;;55.63;;
48911;SDS011;34722;52.108;5.044;2023-02-15T02:16:55;148.80;;;53.78;;
48911;SDS011;34722;52.108;5.044;2023-02-15T02:27:24;149.73;;;54.40;;
48911;SDS011;34722;52.108;5.044;2023-02-15T02:45:08;160.25;;;56.03;;
48911;SDS011;34722;52.108;5.044;2023-02-15T02:47:49;143.63;;;50.63;;
48911;SDS011;34722;52.108;5.044;2023-02-15T02:50:25;157.20;;;49.90;;
48911;SDS011;34722;52.108;5.044;2023-02-15T02:52:54;111.55;;;39.10;;
48911;SDS011;34722;52.108;5.044;2023-02-15T02:55:23;145.32;;;53.97;;
48911;SDS011;34722;52.108;5.044;2023-02-15T02:58:13;150.80;;;54.40;;
48911;SDS011;34722;52.108;5.044;2023-02-15T03:03:10;138.98;;;47.92;;
48911;SDS011;34722;52.108;5.044;2023-02-15T03:05:41;149.57;;;50.53;;
48911;SDS011;34722;52.108;5.044;2023-02-15T03:08:09;154.25;;;52.28;;
48911;SDS011;34722;52.108;5.044;2023-02-15T03:10:36;154.40;;;53.83;;
48911;SDS011;34722;52.108;5.044;2023-02-15T03:13:12;160.18;;;52.67;;
48911;SDS011;34722;52.108;5.044;2023-02-15T03:15:39;154.65;;;54.20;;
48911;SDS011;34722;52.108;5.044;2023-02-15T03:21:38;144.30;;;52.17;;
48911;SDS011;34722;52.108;5.044;2023-02-15T03:24:16;151.95;;;51.72;;
48911;SDS011;34722;52.108;5.044;2023-02-15T03:26:45;143.32;;;53.65;;
48911;SDS011;34722;52.108;5.044;2023-02-15T03:29:13;158.40;;;52.95;;
48911;SDS011;34722;52.108;5.044;2023-02-15T03:31:42;155.38;;;53.40;;
48911;SDS011;34722;52.108;5.044;2023-02-15T03:34:13;141.00;;;52.33;;
48911;SDS011;34722;52.108;5.044;2023-02-15T03:36:43;145.88;;;50.60;;
48911;SDS011;34722;52.108;5.044;2023-02-15T03:39:30;157.13;;;50.83;;
48911;SDS011;34722;52.108;5.044;2023-02-15T03:42:08;158.52;;;50.22;;
48911;SDS011;34722;52.108;5.044;2023-02-15T03:45:02;155.98;;;51.58;;
48911;SDS011;34722;52.108;5.044;2023-02-15T03:47:37;149.95;;;49.95;;
48911;SDS011;34722;52.108;5.044;2023-02-15T03:50:16;150.40;;;49.80;;
48911;SDS011;34722;52.108;5.044;2023-02-15T03:53:09;136.23;;;50.78;;
48911;SDS011;34722;52.108;5.044;2023-02-15T03:55:38;160.68;;;54.00;;
48911;SDS011;34722;52.108;5.044;2023-02-15T03:58:04;154.13;;;53.58;;
48911;SDS011;34722;52.108;5.044;2023-02-15T04:00:49;158.23;;;56.80;;
48911;SDS011;34722;52.108;5.044;2023-02-15T04:03:45;157.77;;;55.58;;
48911;SDS011;34722;52.108;5.044;2023-02-15T04:06:21;163.18;;;56.08;;
48911;SDS011;34722;52.108;5.044;2023-02-15T04:08:46;163.75;;;56.97;;
48911;SDS011;34722;52.108;5.044;2023-02-15T04:11:31;174.40;;;55.38;;
48911;SDS011;34722;52.108;5.044;2023-02-15T04:13:56;169.70;;;60.53;;
48911;SDS011;34722;52.108;5.044;2023-02-15T04:16:22;164.95;;;56.05;;
48911;SDS011;34722;52.108;5.044;2023-02-15T04:18:48;179.68;;;57.20;;
48911;SDS011;34722;52.108;5.044;2023-02-15T04:21:33;156.93;;;57.75;;
48911;SDS011;34722;52.108;5.044;2023-02-15T04:24:17;163.70;;;56.80;;
48911;SDS011;34722;52.108;5.044;2023-02-15T04:27:02;163.70;;;56.85;;
48911;SDS011;34722;52.108;5.044;2023-02-15T04:29:29;174.73;;;55.70;;
48911;SDS011;34722;52.108;5.044;2023-02-15T04:31:57;163.35;;;58.30;;
48911;SDS011;34722;52.108;5.044;2023-02-15T04:34:24;171.20;;;57.75;;
48911;SDS011;34722;52.108;5.044;2023-02-15T04:36:50;156.02;;;55.50;;
48911;SDS011;34722;52.108;5.044;2023-02-15T04:39:16;156.25;;;57.33;;
48911;SDS011;34722;52.108;5.044;2023-02-15T04:41:43;168.38;;;56.30;;
48911;SDS011;34722;52.108;5.044;2023-02-15T04:44:09;157.02;;;59.15;;
48911;SDS011;34722;52.108;5.044;2023-02-15T04:46:35;162.38;;;57.30;;
48911;SDS011;34722;52.108;5.044;2023-02-15T04:49:01;160.80;;;57.65;;
48911;SDS011;34722;52.108;5.044;2023-02-15T04:51:26;139.95;;;54.58;;
48911;SDS011;34722;52.108;5.044;2023-02-15T04:53:52;153.20;;;57.05;;
48911;SDS011;34722;52.108;5.044;2023-02-15T04:56:18;163.75;;;56.53;;
48911;SDS011;34722;52.108;5.044;2023-02-15T04:58:44;139.75;;;55.60;;
48911;SDS011;34722;52.108;5.044;2023-02-15T05:01:10;150.55;;;53.83;;
48911;SDS011;34722;52.108;5.044;2023-02-15T05:03:36;150.68;;;56.95;;
48911;SDS011;34722;52.108;5.044;2023-02-15T05:06:02;150.70;;;52.97;;
48911;SDS011;34722;52.108;5.044;2023-02-15T05:08:28;152.25;;;53.85;;
48911;SDS011;34722;52.108;5.044;2023-02-15T05:10:54;152.68;;;55.47;;
48911;SDS011;34722;52.108;5.044;2023-02-15T05:13:19;151.30;;;54.08;;
48911;SDS011;34722;52.108;5.044;2023-02-15T05:15:51;154.88;;;57.70;;
48911;SDS011;34722;52.108;5.044;2023-02-15T05:18:18;147.98;;;55.20;;
48911;SDS011;34722;52.108;5.044;2023-02-15T05:20:45;138.98;;;51.47;;
48911;SDS011;34722;52.108;5.044;2023-02-15T05:26:37;157.27;;;52.20;;
48911;SDS011;34722;52.108;5.044;2023-02-15T05:29:21;148.73;;;52.97;;
48911;SDS011;34722;52.108;5.044;2023-02-15T05:31:47;139.88;;;52.97;;
48911;SDS011;34722;52.108;5.044;2023-02-15T05:34:12;147.50;;;55.53;;
48911;SDS011;34722;52.108;5.044;2023-02-15T05:36:38;150.50;;;53.03;;
48911;SDS011;34722;52.108;5.044;2023-02-15T05:39:04;144.00;;;51.40;;
48911;SDS011;34722;52.108;5.044;2023-02-15T05:41:30;141.45;;;52.42;;
48911;SDS011;34722;52.108;5.044;2023-02-15T05:43:56;142.20;;;52.00;;
48911;SDS011;34722;52.108;5.044;2023-02-15T05:46:21;154.00;;;52.10;;
48911;SDS011;34722;52.108;5.044;2023-02-15T05:48:47;142.55;;;51.63;;
48911;SDS011;34722;52.108;5.044;2023-02-15T05:51:13;147.32;;;53.15;;
48911;SDS011;34722;52.108;5.044;2023-02-15T05:53:40;147.35;;;50.60;;
48911;SDS011;34722;52.108;5.044;2023-02-15T05:56:07;150.02;;;51.22;;
48911;SDS011;34722;52.108;5.044;2023-02-15T05:58:35;146.50;;;52.45;;
48911;SDS011;34722;52.108;5.044;2023-02-15T06:01:09;145.02;;;53.38;;
48911;SDS011;34722;52.108;5.044;2023-02-15T06:03:35;155.93;;;53.63;;
48911;SDS011;34722;52.108;5.044;2023-02-15T06:06:01;154.00;;;53.10;;
48911;SDS011;34722;52.108;5.044;2023-02-15T06:08:29;154.55;;;54.70;;
48911;SDS011;34722;52.108;5.044;2023-02-15T06:10:55;149.60;;;50.80;;
48911;SDS011;34722;52.108;5.044;2023-02-15T06:13:21;143.57;;;54.20;;
48911;SDS011;34722;52.108;5.044;2023-02-15T06:15:47;143.63;;;54.67;;
48911;SDS011;34722;52.108;5.044;2023-02-15T06:18:12;149.93;;;53.90;;
48911;SDS011;34722;52.108;5.044;2023-02-15T06:20:38;144.82;;;51.50;;
48911;SDS011;34722;52.108;5.044;2023-02-15T06:23:08;142.57;;;53.83;;
48911;SDS011;34722;52.108;5.044;2023-02-15T06:25:34;154.30;;;54.97;;
48911;SDS011;34722;52.108;5.044;2023-02-15T06:28:14;152.77;;;55.42;;
48911;SDS011;34722;52.108;5.044;2023-02-15T06:33:35;154.00;;;49.80;;
48911;SDS011;34722;52.108;5.044;2023-02-15T06:36:00;137.85;;;53.33;;
48911;SDS011;34722;52.108;5.044;2023-02-15T06:38:26;148.63;;;54.47;;
48911;SDS011;34722;52.108;5.044;2023-02-15T06:40:52;153.75;;;57.08;;
48911;SDS011;34722;52.108;5.044;2023-02-15T06:43:17;145.60;;;53.63;;
48911;SDS011;34722;52.108;5.044;2023-02-15T06:45:43;148.07;;;54.78;;
48911;SDS011;34722;52.108;5.044;2023-02-15T06:48:09;142.43;;;55.83;;
48911;SDS011;34722;52.108;5.044;2023-02-15T06:50:36;147.27;;;53.30;;
48911;SDS011;34722;52.108;5.044;2023-02-15T06:53:02;150.15;;;53.35;;
48911;SDS011;34722;52.108;5.044;2023-02-15T06:55:28;149.48;;;53.53;;
48911;SDS011;34722;52.108;5.044;2023-02-15T06:57:53;156.23;;;56.03;;
48911;SDS011;34722;52.108;5.044;2023-02-15T07:00:19;152.20;;;56.42;;
48911;SDS011;34722;52.108;5.044;2023-02-15T07:02:47;148.13;;;52.90;;
48911;SDS011;34722;52.108;5.044;2023-02-15T07:05:12;139.10;;;51.05;;
48911;SDS011;34722;52.108;5.044;2023-02-15T07:07:38;155.60;;;55.42;;
48911;SDS011;34722;52.108;5.044;2023-02-15T07:10:04;142.32;;;55.20;;
48911;SDS011;34722;52.108;5.044;2023-02-15T07:12:30;151.10;;;54.75;;
48911;SDS011;34722;52.108;5.044;2023-02-15T07:15:21;142.90;;;55.92;;
48911;SDS011;34722;52.108;5.044;2023-02-15T07:17:46;145.25;;;54.00;;
48911;SDS011;34722;52.108;5.044;2023-02-15T07:20:14;145.60;;;55.13;;
48911;SDS011;34722;52.108;5.044;2023-02-15T07:22:47;148.55;;;55.75;;
48911;SDS011;34722;52.108;5.044;2023-02-15T07:25:13;142.65;;;53.22;;
48911;SDS011;34722;52.108;5.044;2023-02-15T07:27:39;155.40;;;55.20;;
48911;SDS011;34722;52.108;5.044;2023-02-15T07:33:08;144.23;;;55.25;;
48911;SDS011;34722;52.108;5.044;2023-02-15T07:35:55;143.02;;;53.58;;
48911;SDS011;34722;52.108;5.044;2023-02-15T07:38:23;134.82;;;52.95;;
48911;SDS011;34722;52.108;5.044;2023-02-15T07:40:49;155.10;;;55.80;;
48911;SDS011;34722;52.108;5.044;2023-02-15T07:43:15;142.55;;;54.10;;
48911;SDS011;34722;52.108;5.044;2023-02-15T07:45:41;139.48;;;52.17;;
48911;SDS011;34722;52.108;5.044;2023-02-15T07:48:07;152.07;;;55.85;;
48911;SDS011;34722;52.108;5.044;2023-02-15T07:50:33;146.60;;;55.35;;
48911;SDS011;34722;52.108;5.044;2023-02-15T07:53:03;126.10;;;51.95;;
48911;SDS011;34722;52.108;5.044;2023-02-15T07:55:29;150.85;;;54.83;;
48911;SDS011;34722;52.108;5.044;2023-02-15T07:57:55;152.77;;;56.67;;
48911;SDS011;34722;52.108;5.044;2023-02-15T08:00:21;131.90;;;53.20;;
48911;SDS011;34722;52.108;5.044;2023-02-15T08:02:52;138.60;;;55.92;;
48911;SDS011;34722;52.108;5.044;2023-02-15T08:05:37;140.27;;;56.67;;
48911;SDS011;34722;52.108;5.044;2023-02-15T08:08:04;121.38;;;51.72;;
48911;SDS011;34722;52.108;5.044;2023-02-15T08:10:30;110.60;;;49.65;;
48911;SDS011;34722;52.108;5.044;2023-02-15T08:13:14;93.78;;;46.20;;
48911;SDS011;34722;52.108;5.044;2023-02-15T08:15:47;96.28;;;42.35;;
48911;SDS011;34722;52.108;5.044;2023-02-15T08:18:15;80.32;;;41.38;;
48911;SDS011;34722;52.108;5.044;2023-02-15T08:20:41;77.78;;;36.78;;
48911;SDS011;34722;52.108;5.044;2023-02-15T08:23:07;65.10;;;32.58;;
48911;SDS011;34722;52.108;5.044;2023-02-15T08:25:33;55.40;;;29.23;;
48911;SDS011;34722;52.108;5.044;2023-02-15T08:27:58;57.67;;;31.17;;
48911;SDS011;34722;52.108;5.044;2023-02-15T08:30:24;55.90;;;29.58;;
48911;SDS011;34722;52.108;5.044;2023-02-15T08:32:50;53.72;;;29.70;;
48911;SDS011;34722;52.108;5.044;2023-02-15T08:35:16;56.25;;;29.52;;
48911;SDS011;34722;52.108;5.044;2023-02-15T08:37:42;53.63;;;28.88;;
48911;SDS011;34722;52.108;5.044;2023-02-15T08:40:07;53.47;;;28.52;;
48911;SDS011;34722;52.108;5.044;2023-02-15T08:42:33;54.45;;;30.60;;
48911;SDS011;34722;52.108;5.044;2023-02-15T08:44:59;52.35;;;28.23;;
48911;SDS011;34722;52.108;5.044;2023-02-15T08:47:24;54.67;;;28.80;;
48911;SDS011;34722;52.108;5.044;2023-02-15T08:49:50;61.53;;;30.83;;
48911;SDS011;34722;52.108;5.044;2023-02-15T08:52:16;56.17;;;32.58;;
48911;SDS011;34722;52.108;5.044;2023-02-15T08:54:42;60.60;;;30.50;;
48911;SDS011;34722;52.108;5.044;2023-02-15T08:57:08;56.60;;;32.33;;
48911;SDS011;34722;52.108;5.044;2023-02-15T08:59:35;59.42;;;30.80;;
48911;SDS011;34722;52.108;5.044;2023-02-15T09:02:00;57.47;;;30.70;;
48911;SDS011;34722;52.108;5.044;2023-02-15T09:04:26;57.50;;;31.42;;
48911;SDS011;34722;52.108;5.044;2023-02-15T09:06:52;60.38;;;30.75;;
48911;SDS011;34722;52.108;5.044;2023-02-15T09:09:18;55.70;;;30.75;;
48911;SDS011;34722;52.108;5.044;2023-02-15T09:11:46;52.97;;;29.80;;
48911;SDS011;34722;52.108;5.044;2023-02-15T09:14:14;56.50;;;29.88;;
48911;SDS011;34722;52.108;5.044;2023-02-15T09:16:46;58.97;;;31.38;;
48911;SDS011;34722;52.108;5.044;2023-02-15T09:19:14;55.47;;;30.13;;
48911;SDS011;34722;52.108;5.044;2023-02-15T09:21:40;58.80;;;30.33;;
48911;SDS011;34722;52.108;5.044;2023-02-15T09:24:10;58.72;;;30.73;;
48911;SDS011;34722;52.108;5.044;2023-02-15T09:26:38;54.55;;;29.77;;
48911;SDS011;34722;52.108;5.044;2023-02-15T09:29:08;56.13;;;31.55;;
48911;SDS011;34722;52.108;5.044;2023-02-15T09:31:39;51.42;;;30.48;;
48911;SDS011;34722;52.108;5.044;2023-02-15T09:34:09;52.40;;;30.48;;
48911;SDS011;34722;52.108;5.044;2023-02-15T09:36:35;59.35;;;31.75;;
48911;SDS011;34722;52.108;5.044;2023-02-15T09:39:04;48.63;;;31.55;;
48911;SDS011;34722;52.108;5.044;2023-02-15T09:44:33;53.95;;;31.73;;
48911;SDS011;34722;52.108;5.044;2023-02-15T09:47:41;49.63;;;30.58;;
48911;SDS011;34722;52.108;5.044;2023-02-15T10:25:36;50.50;;;34.92;;
48911;SDS011;34722;52.108;5.044;2023-02-15T10:28:18;57.15;;;34.97;;
48911;SDS011;34722;52.108;5.044;2023-02-15T10:30:49;49.50;;;34.85;;
48911;SDS011;34722;52.108;5.044;2023-02-15T10:36:48;51.90;;;37.10;;
48911;SDS011;34722;52.108;5.044;2023-02-15T10:39:29;52.70;;;36.10;;
48911;SDS011;34722;52.108;5.044;2023-02-15T10:42:07;58.20;;;37.08;;
48911;SDS011;34722;52.108;5.044;2023-02-15T10:44:52;57.35;;;37.55;;
48911;SDS011;34722;52.108;5.044;2023-02-15T10:47:41;67.20;;;41.10;;
48911;SDS011;34722;52.108;5.044;2023-02-15T11:01:12;62.10;;;38.30;;
48911;SDS011;34722;52.108;5.044;2023-02-15T11:06:26;67.80;;;39.58;;
48911;SDS011;34722;52.108;5.044;2023-02-15T11:08:54;68.32;;;40.58;;
48911;SDS011;34722;52.108;5.044;2023-02-15T11:11:34;70.00;;;39.65;;
48911;SDS011;34722;52.108;5.044;2023-02-15T11:16:59;71.00;;;39.20;;
48911;SDS011;34722;52.108;5.044;2023-02-15T11:19:42;66.90;;;38.63;;
48911;SDS011;34722;52.108;5.044;2023-02-15T11:22:21;69.55;;;37.97;;
48911;SDS011;34722;52.108;5.044;2023-02-15T11:24:48;70.78;;;39.25;;
48911;SDS011;34722;52.108;5.044;2023-02-15T11:27:21;66.30;;;38.25;;
48911;SDS011;34722;52.108;5.044;2023-02-15T11:33:13;72.28;;;39.00;;
48911;SDS011;34722;52.108;5.044;2023-02-15T11:35:48;64.53;;;39.78;;
48911;SDS011;34722;52.108;5.044;2023-02-15T11:38:21;73.07;;;41.83;;
48911;SDS011;34722;52.108;5.044;2023-02-15T11:41:03;66.38;;;38.58;;
48911;SDS011;34722;52.108;5.044;2023-02-15T11:46:04;68.15;;;40.05;;
48911;SDS011;34722;52.108;5.044;2023-02-15T11:48:31;69.75;;;40.10;;
48911;SDS011;34722;52.108;5.044;2023-02-15T11:50:57;68.30;;;40.75;;
48911;SDS011;34722;52.108;5.044;2023-02-15T11:53:24;67.85;;;39.47;;
48911;SDS011;34722;52.108;5.044;2023-02-15T11:55:53;65.93;;;39.20;;
48911;SDS011;34722;52.108;5.044;2023-02-15T12:00:56;64.80;;;40.65;;
48911;SDS011;34722;52.108;5.044;2023-02-15T12:03:42;66.03;;;40.45;;
48911;SDS011;34722;52.108;5.044;2023-02-15T12:06:13;67.00;;;41.47;;
48911;SDS011;34722;52.108;5.044;2023-02-15T12:09:07;68.75;;;42.08;;
48911;SDS011;34722;52.108;5.044;2023-02-15T12:30:47;76.70;;;45.63;;
48911;SDS011;34722;52.108;5.044;2023-02-15T12:35:39;76.05;;;45.33;;
48911;SDS011;34722;52.108;5.044;2023-02-15T12:38:26;72.78;;;44.05;;
48911;SDS011;34722;52.108;5.044;2023-02-15T12:43:33;73.47;;;42.85;;
48911;SDS011;34722;52.108;5.044;2023-02-15T12:48:43;77.82;;;44.40;;
48911;SDS011;34722;52.108;5.044;2023-02-15T12:51:13;72.13;;;43.53;;
48911;SDS011;34722;52.108;5.044;2023-02-15T12:53:40;69.72;;;44.35;;
48911;SDS011;34722;52.108;5.044;2023-02-15T12:56:07;73.35;;;45.55;;
48911;SDS011;34722;52.108;5.044;2023-02-15T12:58:37;70.82;;;42.97;;
48911;SDS011;34722;52.108;5.044;2023-02-15T13:06:38;73.80;;;42.22;;
48911;SDS011;34722;52.108;5.044;2023-02-15T13:12:16;74.57;;;42.30;;
48911;SDS011;34722;52.108;5.044;2023-02-15T13:14:45;73.65;;;42.58;;
48911;SDS011;34722;52.108;5.044;2023-02-15T13:17:15;84.72;;;42.58;;
48911;SDS011;34722;52.108;5.044;2023-02-15T13:19:46;75.22;;;42.25;;
48911;SDS011;34722;52.108;5.044;2023-02-15T13:25:45;79.15;;;44.70;;
48911;SDS011;34722;52.108;5.044;2023-02-15T13:28:15;80.32;;;44.28;;
48911;SDS011;34722;52.108;5.044;2023-02-15T13:30:43;79.90;;;42.92;;
48911;SDS011;34722;52.108;5.044;2023-02-15T13:33:23;79.80;;;44.22;;
48911;SDS011;34722;52.108;5.044;2023-02-15T13:41:34;79.70;;;43.80;;
48911;SDS011;34722;52.108;5.044;2023-02-15T13:52:41;77.55;;;42.33;;
48911;SDS011;34722;52.108;5.044;2023-02-15T14:03:25;83.75;;;44.50;;
48911;SDS011;34722;52.108;5.044;2023-02-15T14:19:51;82.43;;;43.78;;
48911;SDS011;34722;52.108;5.044;2023-02-15T14:27:56;89.53;;;47.60;;
48911;SDS011;34722;52.108;5.044;2023-02-15T14:30:31;80.93;;;44.53;;
48911;SDS011;34722;52.108;5.044;2023-02-15T14:33:08;89.60;;;44.58;;
48911;SDS011;34722;52.108;5.044;2023-02-15T14:35:53;88.03;;;47.67;;
48911;SDS011;34722;52.108;5.044;2023-02-15T14:38:33;93.38;;;48.90;;
48911;SDS011;34722;52.108;5.044;2023-02-15T14:41:12;84.03;;;46.17;;
48911;SDS011;34722;52.108;5.044;2023-02-15T14:46:21;84.78;;;45.78;;
48911;SDS011;34722;52.108;5.044;2023-02-15T14:49:19;85.65;;;46.70;;
48911;SDS011;34722;52.108;5.044;2023-02-15T14:56:48;88.53;;;45.60;;
48911;SDS011;34722;52.108;5.044;2023-02-15T14:59:45;84.35;;;45.75;;
48911;SDS011;34722;52.108;5.044;2023-02-15T15:05:47;88.22;;;47.08;;
48911;SDS011;34722;52.108;5.044;2023-02-15T15:08:21;87.28;;;46.50;;
48911;SDS011;34722;52.108;5.044;2023-02-15T15:10:57;84.97;;;45.08;;
48911;SDS011;34722;52.108;5.044;2023-02-15T15:13:53;86.47;;;47.17;;
48911;SDS011;34722;52.108;5.044;2023-02-15T15:16:24;87.65;;;46.92;;
48911;SDS011;34722;52.108;5.044;2023-02-15T15:19:03;83.00;;;44.88;;
48911;SDS011;34722;52.108;5.044;2023-02-15T15:49:12;95.43;;;46.88;;
48911;SDS011;34722;52.108;5.044;2023-02-15T15:51:41;89.82;;;48.05;;
48911;SDS011;34722;52.108;5.044;2023-02-15T15:54:12;90.18;;;48.95;;
48911;SDS011;34722;52.108;5.044;2023-02-15T15:56:46;86.60;;;47.60;;
48911;SDS011;34722;52.108;5.044;2023-02-15T15:59:19;95.70;;;49.03;;
48911;SDS011;34722;52.108;5.044;2023-02-15T16:01:51;94.32;;;47.80;;
48911;SDS011;34722;52.108;5.044;2023-02-15T16:04:24;91.82;;;50.00;;
48911;SDS011;34722;52.108;5.044;2023-02-15T16:06:52;92.03;;;48.92;;
48911;SDS011;34722;52.108;5.044;2023-02-15T16:09:21;94.00;;;51.15;;
48911;SDS011;34722;52.108;5.044;2023-02-15T16:11:52;100.07;;;49.53;;
48911;SDS011;34722;52.108;5.044;2023-02-15T16:16:53;100.65;;;48.97;;
48911;SDS011;34722;52.108;5.044;2023-02-15T16:19:24;93.47;;;49.67;;
48911;SDS011;34722;52.108;5.044;2023-02-15T16:21:53;97.78;;;50.25;;
48911;SDS011;34722;52.108;5.044;2023-02-15T16:29:18;104.95;;;49.25;;
48911;SDS011;34722;52.108;5.044;2023-02-15T16:34:49;102.15;;;50.95;;
48911;SDS011;34722;52.108;5.044;2023-02-15T16:37:25;99.97;;;48.63;;
48911;SDS011;34722;52.108;5.044;2023-02-15T16:39:54;104.95;;;51.35;;
48911;SDS011;34722;52.108;5.044;2023-02-15T16:42:20;99.97;;;48.92;;
48911;SDS011;34722;52.108;5.044;2023-02-15T16:45:05;101.63;;;50.50;;
48911;SDS011;34722;52.108;5.044;2023-02-15T16:47:36;95.32;;;48.88;;
48911;SDS011;34722;52.108;5.044;2023-02-15T16:50:06;106.60;;;51.55;;
48911;SDS011;34722;52.108;5.044;2023-02-15T16:52:46;108.00;;;51.25;;
48911;SDS011;34722;52.108;5.044;2023-02-15T16:55:26;100.00;;;50.17;;
48911;SDS011;34722;52.108;5.044;2023-02-15T16:58:01;101.57;;;48.40;;
48911;SDS011;34722;52.108;5.044;2023-02-15T17:00:31;102.82;;;50.15;;
48911;SDS011;34722;52.108;5.044;2023-02-15T17:03:06;101.00;;;48.83;;
48911;SDS011;34722;52.108;5.044;2023-02-15T17:05:44;102.90;;;48.60;;
48911;SDS011;34722;52.108;5.044;2023-02-15T17:11:08;97.18;;;46.03;;
48911;SDS011;34722;52.108;5.044;2023-02-15T17:16:32;93.07;;;45.85;;
48911;SDS011;34722;52.108;5.044;2023-02-15T17:19:08;93.00;;;44.22;;
48911;SDS011;34722;52.108;5.044;2023-02-15T17:21:40;95.65;;;43.90;;
48911;SDS011;34722;52.108;5.044;2023-02-15T17:27:00;99.28;;;45.17;;
48911;SDS011;34722;52.108;5.044;2023-02-15T17:29:39;92.72;;;42.97;;
48911;SDS011;34722;52.108;5.044;2023-02-15T17:32:14;88.18;;;41.88;;
48911;SDS011;34722;52.108;5.044;2023-02-15T17:34:51;94.07;;;46.03;;
48911;SDS011;34722;52.108;5.044;2023-02-15T17:42:43;89.50;;;44.63;;
48911;SDS011;34722;52.108;5.044;2023-02-15T17:45:09;95.07;;;44.75;;
48911;SDS011;34722;52.108;5.044;2023-02-15T17:47:34;97.20;;;45.40;;
48911;SDS011;34722;52.108;5.044;2023-02-15T17:50:01;104.07;;;48.53;;
48911;SDS011;34722;52.108;5.044;2023-02-15T17:52:28;93.95;;;45.20;;
48911;SDS011;34722;52.108;5.044;2023-02-15T17:54:55;89.05;;;43.55;;
48911;SDS011;34722;52.108;5.044;2023-02-15T17:57:40;100.25;;;46.85;;
48911;SDS011;34722;52.108;5.044;2023-02-15T18:00:06;100.65;;;46.30;;
48911;SDS011;34722;52.108;5.044;2023-02-15T18:02:51;98.65;;;45.85;;
48911;SDS011;34722;52.108;5.044;2023-02-15T18:05:36;96.93;;;45.75;;
48911;SDS011;34722;52.108;5.044;2023-02-15T18:08:22;97.32;;;46.63;;
48911;SDS011;34722;52.108;5.044;2023-02-15T18:11:10;103.28;;;46.65;;
48911;SDS011;34722;52.108;5.044;2023-02-15T18:13:54;105.78;;;49.65;;
48911;SDS011;34722;52.108;5.044;2023-02-15T18:16:25;105.50;;;51.80;;
48911;SDS011;34722;52.108;5.044;2023-02-15T18:18:54;107.40;;;51.60;;
48911;SDS011;34722;52.108;5.044;2023-02-15T18:21:21;103.43;;;49.60;;
48911;SDS011;34722;52.108;5.044;2023-02-15T18:23:48;116.25;;;52.97;;
48911;SDS011;34722;52.108;5.044;2023-02-15T18:26:21;103.80;;;50.72;;
48911;SDS011;34722;52.108;5.044;2023-02-15T18:28:47;116.53;;;50.75;;
48911;SDS011;34722;52.108;5.044;2023-02-15T18:31:14;105.97;;;51.40;;
48911;SDS011;34722;52.108;5.044;2023-02-15T18:33:47;115.57;;;52.78;;
48911;SDS011;34722;52.108;5.044;2023-02-15T18:36:28;115.53;;;51.95;;
48911;SDS011;34722;52.108;5.044;2023-02-15T18:38:56;107.38;;;48.97;;
48911;SDS011;34722;52.108;5.044;2023-02-15T18:41:23;115.40;;;52.60;;
48911;SDS011;34722;52.108;5.044;2023-02-15T18:43:49;103.22;;;50.05;;
48911;SDS011;34722;52.108;5.044;2023-02-15T18:46:16;107.30;;;51.13;;
48911;SDS011;34722;52.108;5.044;2023-02-15T18:48:42;108.03;;;50.88;;